Weather observations for the past three days for
Gilmer, Fox Stephens Field - Gilmer Municipal Airport
Metric (Imperial)
Date Time (cdt) Wind (kph) Vis. (km) Weather Sky Cond. Temperature (ºC) Relative Humidity Wind Chill (°C) Heat Index (°C) Pressure Precipitation (cm)
Air Dwpt 6 hour altimeter (cm) sea level (mb) 1 hr 3 hr 6 hr
Max. Min.
31 19:35 E 7 16.09 Fair CLR 34.1 14.2 30% 33 76.1 0.0
31 19:15 E 7 16.09 Fair CLR 34.9 14.2 29% 34 76.07 0.0
31 18:55 E 9 16.09 Fair CLR 35.5 14.1 37.8 34.5 28% 35 76.07 0.0
31 18:35 E 13 16.09 Fair CLR 36 13.6 26% 35 76.07 0.0
31 18:15 E 7 16.09 Fair CLR 36.2 13.7 26% 35 76.07 0.0
31 17:55 E 6 16.09 Fair CLR 36.8 13.2 24% 36 76.07 0.0
31 17:35 E 11 16.09 Fair CLR 37.1 13.6 24% 36 76.07 0.0
31 17:15 E 13 16.09 Fair CLR 37.1 13.4 24% 36 76.07 0.0
31 16:55 E 9 16.09 Fair CLR 37.6 13.6 24% 37 76.1 0.0
31 16:35 SE 11 16.09 Fair CLR 37.1 12.6 23% 36 76.1 0.0
31 16:15 E 6 16.09 Fair CLR 36.6 14.2 26% 36 76.12 0.0
31 15:55 E 11 16.09 Fair CLR 36.6 14.6 27% 36 76.12 0.0
31 15:35 E 9 16.09 Fair CLR 37 14.7 26% 37 76.17 0.0
31 15:15 E 9 16.09 Fair CLR 36.7 14.7 27% 36 76.17 0.0
31 14:55 E 11 16.09 Fair CLR 36.5 14.9 27% 36 76.2 0.0
31 14:35 E 6 16.09 Fair CLR 35 15.6 31% 35 76.23 0.0
31 14:15 NE 7 16.09 Fair CLR 35.8 15.1 29% 36 76.23 0.0
31 13:55 NE 11 16.09 Fair CLR 35.3 14.8 29% 35 76.25 0.0
31 13:35 Calm 16.09 Fair CLR 35.4 15.4 30% 35 76.28 0.0
31 13:15 S 7 16.09 Fair CLR 34.9 15.6 31% 35 76.28 0.0
31 12:55 Calm 16.09 Fair CLR 35.6 15.7 36.1 23.7 30% 36 76.3 0.0
31 12:35 Calm 16.09 Fair CLR 35.4 16.1 32% 36 76.33 0.0
31 12:15 Calm 16.09 Fair CLR 34.4 16.1 33% 35 76.35 0.0
31 11:55 Calm 16.09 Fair CLR 34 16 34% 34 76.38 0.0
31 11:35 SE 9 16.09 Fair CLR 33.8 16 34% 34 76.38 0.0
31 11:15 S 11 16.09 Fair CLR 33 16.1 36% 33 76.4 0.0
31 10:55 W 6 16.09 Fair CLR 32.6 16.2 37% 33 76.38 0.0
31 10:35 SW 6 16.09 Fair CLR 31.8 15.8 38% 32 76.38 0.0
31 10:15 SW 6 16.09 Fair CLR 31.1 15.8 40% 31 76.38 0.0
31 09:55 Calm 16.09 Fair CLR 29.6 17.8 49% 30 76.38 0.0
31 09:35 W 6 16.09 Fair CLR 29.3 18.9 54% 31 76.35 0.0
31 09:15 Calm 16.09 Fair CLR 28.9 19.4 57% 30 76.35 0.0
31 08:55 Calm 16.09 Fair CLR 27.9 19 58% 29 76.35 0.0
31 08:35 S 7 16.09 Fair CLR 27.4 18.8 59% 29 76.33 0.0
31 08:15 SE 6 16.09 Fair CLR 26.5 18.6 62% 28 76.33 0.0
31 07:55 Calm 16.09 Fair CLR 25.7 18.6 65% 27 76.3 0.0
31 07:35 Calm 16.09 Fair CLR 24.3 18.7 71% 25 76.28 0.0
31 07:15 Calm 16.09 Fair CLR 24.5 18.3 68% 25 76.28 0.0
31 06:55 Calm 16.09 Fair CLR 23.6 18.7 30.2 23.6 74% 76.25 0.0
31 06:35 Calm 16.09 Fair CLR 25 18 65% 26 76.23 0.0
31 06:15 Calm 16.09 Fair CLR 25.1 18 65% 26 76.23 0.0
31 05:55 Calm 16.09 Fair CLR 25.3 18 64% 26 76.23 0.0
31 05:35 Calm 16.09 Fair CLR 25.7 18 63% 27 76.23 0.0
31 05:15 Calm 16.09 Fair CLR 26.5 17.6 58% 27 76.2 0.0
31 04:55 S 6 16.09 Fair CLR 27 17.5 56% 28 76.2 0.0
31 04:35 Calm 16.09 Fair CLR 27 17.2 55% 28 76.2 0.0
31 04:15 Calm 16.09 Fair CLR 27.5 17 53% 28 76.2 0.0
31 03:55 Calm 16.09 Fair CLR 28.1 16.9 51% 29 76.2 0.0
31 03:35 S 7 16.09 Fair CLR 28.6 16.6 48% 29 76.17 0.0
31 03:15 SE 6 16.09 Fair CLR 28.6 16.5 48% 29 76.17 0.0
31 02:55 SE 6 16.09 Fair CLR 28.6 17 49% 29 76.17 0.0
31 02:35 SE 9 16.09 Fair CLR 28.8 17 49% 29 76.17 0.0
31 02:15 SE 6 16.09 Fair CLR 29.2 16.8 47% 30 76.17 0.0
31 01:55 SE 7 16.09 Fair CLR 29.6 16.6 45% 30 76.17 0.0
31 01:35 SE 9 16.09 Fair CLR 29.7 16.3 44% 30 76.2 0.0
31 01:15 SE 9 16.09 Fair CLR 30 16.4 44% 30 76.2 0.0
31 00:55 SE 19 16.09 Fair CLR 30 16.5 36.6 29 44% 30 76.17 0.0
31 00:35 SE 9 16.09 Fair CLR 29.7 16.3 44% 30 76.2 0.0
31 00:15 SE 9 16.09 Fair CLR 29.4 16.5 46% 30 76.17 0.0
30 23:35 E 6 16.09 Partly Cloudy SCT090 29 16 45% 29 76.15 0.0
30 23:15 E 6 16.09 Fair CLR 29.6 15.4 42% 29 76.15 0.0
30 22:55 E 6 16.09 Fair CLR 30 15 40% 30 76.15 0.0
30 22:35 E 7 16.09 Fair CLR 30.3 14.7 39% 30 76.12 0.0
30 22:15 E 6 16.09 Fair CLR 30.5 14.5 38% 30 76.12 0.0
30 21:55 E 6 16.09 Fair CLR 31 14.2 36% 30 76.1 0.0
30 21:35 E 7 16.09 Fair CLR 31.4 14 35% 31 76.07 0.0
30 21:15 E 7 16.09 Fair CLR 31.6 14 34% 31 76.05 0.0
30 20:55 E 6 16.09 Fair CLR 31.4 13.8 34% 31 76.02 0.0
30 20:35 E 9 16.09 Fair CLR 31.9 13.6 33% 31 76.02 0.0
30 20:15 Calm 16.09 Fair CLR 32 14.3 34% 31 76 0.0
30 19:55 Calm 16.09 Fair CLR 33.3 13.1 29% 32 75.97 0.0
30 19:35 E 6 16.09 Fair CLR 34.5 12.9 27% 33 75.97 0.0
30 19:15 Calm 16.09 Fair CLR 36 12.2 24% 35 75.97 0.0
30 18:55 Calm 16.09 Fair CLR 36.6 11.9 37.8 35.1 22% 35 75.97 0.0
30 18:35 Calm 16.09 Fair CLR 37 11.3 21% 36 76 0.0
30 18:15 E 6 16.09 Fair CLR 37 12.3 23% 36 76 0.0
30 17:55 Calm 16.09 Fair CLR 35.6 13.2 26% 35 76 0.0
30 17:35 Calm 16.09 Fair CLR 35.8 12.7 25% 35 76 0.0
30 17:15 Calm 16.09 Fair CLR 36.5 12 23% 35 76 0.0
30 16:55 Calm 16.09 Fair CLR 36 11.9 23% 35 76.02 0.0
30 16:35 Calm 16.09 Fair CLR 36.2 12 23% 35 76.02 0.0
30 16:15 E 6 16.09 Fair CLR 37.8 11.3 20% 36 76.02 0.0
30 15:55 Calm 16.09 Fair CLR 37.5 11.8 21% 36 76.05 0.0
30 15:35 E 9 16.09 Fair CLR 37.5 12.1 22% 36 76.07 0.0
30 15:15 Calm 16.09 Fair CLR 37.1 12.2 22% 36 76.1 0.0
30 14:55 Calm 16.09 Fair CLR 35.9 12.7 25% 35 76.15 0.0
30 14:35 Calm 16.09 Fair CLR 35.6 13.1 26% 35 76.15 0.0
30 14:15 Calm 16.09 Fair CLR 36.4 13.6 25% 36 76.17 0.0
30 13:55 W 6 16.09 Fair CLR 37.3 13.9 25% 37 76.17 0.0
30 13:35 Calm 16.09 Fair CLR 35.5 14.2 28% 35 76.2 0.0
30 13:15 N 6 16.09 Fair CLR 35.3 15 30% 35 76.23 0.0
30 12:55 Calm 16.09 Fair CLR 35.7 15.6 35.7 24.8 30% 36 76.23 0.0
30 12:35 S 9 16.09 Fair CLR 35 15.7 31% 35 76.28 0.0
30 12:15 W 6 16.09 Fair CLR 34.4 16.8 35% 35 76.28 0.0
30 11:55 SW 11 16.09 Fair CLR 33.9 17.6 38% 35 76.3 0.0
30 11:35 W 6 16.09 Fair CLR 33.4 18.3 41% 35 76.3 0.0
30 11:15 Calm 16.09 Fair CLR 32.4 18.6 44% 34 76.33 0.0
30 10:55 Calm 16.09 Fair CLR 31.6 18.6 46% 33 76.33 0.0
30 10:35 Calm 16.09 Fair CLR 31.2 18 45% 32 76.33 0.0
30 10:15 S 13 16.09 Fair CLR 30.3 19 51% 32 76.33 0.0
30 09:55 SW 6 16.09 Fair CLR 29.3 19.5 56% 31 76.33 0.0
30 09:35 SW 9 16.09 Fair CLR 29 19.5 57% 31 76.35 0.0
30 09:15 SW 6 16.09 Fair CLR 28.6 19.9 59% 30 76.33 0.0
30 08:55 S 7 16.09 Fair CLR 28 20 62% 30 76.33 0.0
30 08:35 S 7 16.09 Fair CLR 27.5 19.9 63% 29 76.35 0.0
30 08:15 Calm 16.09 Fair CLR 26.6 19.5 65% 28 76.33 0.0
30 07:55 Calm 16.09 Fair CLR 25.8 19.2 67% 27 76.3 0.0
30 07:35 Calm 16.09 Fair CLR 25 19 69% 26 76.3 0.0
30 07:15 Calm 16.09 Fair CLR 24.8 18.9 70% 26 76.28 0.0
30 06:55 S 7 16.09 Fair CLR 25.1 18.7 26.1 23.3 68% 26 76.28 0.0
30 06:35 S 6 16.09 Fair CLR 25.2 18.6 67% 26 76.25 0.0
30 06:15 S 7 16.09 Fair CLR 25.1 18.5 67% 26 76.23 0.0
30 05:55 S 7 16.09 Fair CLR 24.5 17.6 66% 26 76.23 0.0
30 05:35 Calm 16.09 Fair CLR 23.9 16.5 63% 25 76.2 0.0
30 05:15 Calm 16.09 Fair CLR 23.7 16.2 63% 76.2 0.0
30 04:55 Calm 16.09 Fair CLR 23.5 16 63% 76.2 0.0
30 04:35 SE 6 16.09 Fair CLR 24.1 15.7 60% 25 76.2 0.0
30 03:55 Calm 16.09 Fair CLR 24.3 15.5 58% 25 76.2 0.0
30 03:35 Calm 16.09 Fair CLR 24.6 15.5 57% 26 76.2 0.0
30 03:15 Calm 16.09 Fair CLR 25 15.4 55% 26 76.2 0.0
30 02:55 Calm 16.09 Fair CLR 25.1 15.3 55% 26 76.23 0.0
30 02:35 Calm 16.09 Fair CLR 25.2 15.3 54% 26 76.23 0.0
30 02:15 Calm 16.09 Fair CLR 25.5 15.1 53% 26 76.23 0.0
30 01:55 Calm 16.09 Fair CLR 25.8 15 51% 26 76.23 0.0
30 01:35 Calm 16.09 Fair CLR 25.9 15 51% 27 76.23 0.0
30 01:15 Calm 16.09 Fair CLR 26 15.1 51% 27 76.23 0.0
30 00:55 Calm 16.09 Fair CLR 26 15.3 35.6 26 52% 27 76.23 0.0
30 00:35 Calm 16.09 Fair CLR 26.6 15.1 49% 27 76.23 0.0
30 00:15 SE 7 16.09 Fair CLR 27 15.1 48% 27 76.23 0.0
29 23:55 E 6 16.09 Fair CLR 27.2 15 47% 27 76.2 0.0
29 23:35 Calm 16.09 Fair CLR 27.7 14.8 45% 28 76.23 0.0
29 23:15 E 7 16.09 Fair CLR 28.3 14.5 43% 28 76.2 0.0
29 22:55 E 7 16.09 Fair CLR 28.6 14.3 42% 28 76.2 0.0
29 22:35 E 6 16.09 Fair CLR 28.9 14 40% 29 76.2 0.0
29 22:15 E 6 16.09 Fair CLR 29.3 13.6 38% 29 76.2 0.0
29 21:55 E 7 16.09 Fair CLR 29.5 13.3 37% 29 76.2 0.0
29 21:35 E 6 16.09 Fair CLR 30.2 13 35% 29 76.17 0.0
29 21:15 E 7 16.09 Fair CLR 30.7 12.8 33% 30 76.15 0.0
29 20:55 E 7 16.09 Fair CLR 31.2 12.6 32% 30 76.15 0.0
29 20:35 E 7 16.09 Fair CLR 31.9 12.4 30% 31 76.12 0.0
29 20:15 E 7 16.09 Fair CLR 32.5 12.5 29% 31 76.1 0.0
29 19:55 E 7 16.09 Fair CLR 33.1 12.7 29% 32 76.1 0.0
29 19:35 E 7 16.09 Fair CLR 34 12.8 28% 33 76.1 0.0
29 19:15 E 9 16.09 Fair CLR 35 12.4 25% 34 76.1 0.0
29 18:55 NE 7 16.09 Fair CLR 35.7 11.8 38.2 35.2 23% 34 76.07 0.0
29 18:35 E 9 16.09 Fair CLR 36.4 11.5 22% 35 76.07 0.0
29 18:15 NE 9 16.09 Fair CLR 36.8 9.8 19% 35 76.07 0.0
29 17:55 NE 9 16.09 Fair CLR 37.2 9.9 19% 35 76.07 0.0
29 17:35 Calm 16.09 Fair CLR 36.1 9 19% 34 76.07 0.0
29 17:15 NE 9 16.09 Fair CLR 37.3 9.6 18% 35 76.1 0.0
29 16:55 NE 7 16.09 Fair CLR 38.1 9.6 18% 36 76.1 0.0
29 16:35 N 7 16.09 Fair CLR 37.3 10.8 20% 36 76.12 0.0
29 16:15 NE 6 16.09 Fair CLR 38.1 11.2 20% 37 76.15 0.0
29 15:55 Calm 16.09 Fair CLR 37.8 10.6 19% 36 76.15 0.0
29 15:35 NE 7 16.09 Fair CLR 37.7 10.6 19% 36 76.17 0.0
29 15:15 Calm 16.09 Fair CLR 36.9 10.9 21% 35 76.2 0.0
29 14:55 NW 7 16.09 Fair CLR 37.5 11.7 21% 36 76.2 0.0
29 14:35 W 6 16.09 Fair CLR 37.1 11.4 21% 36 76.23 0.0
29 14:15 Calm 16.09 Fair CLR 37.2 11.5 21% 36 76.25 0.0
29 13:55 N 9 16.09 Fair CLR 37.3 12 22% 36 76.28 0.0
29 13:15 Calm 16.09 Fair CLR 36.9 13 24% 36 76.3 0.0
29 12:55 S 7 16.09 Fair CLR 35.3 14.5 35.5 22 29% 35 76.33 0.0
29 12:35 Calm 16.09 Fair CLR 34.7 14.3 29% 34 76.35 0.0
29 11:15 Calm 16.09 Fair CLR 34 16.3 35% 34 76.4 0.0
29 10:55 Calm 16.09 Fair CLR 32.9 17.1 39% 33 76.4 0.0
29 10:35 SE 6 16.09 Fair CLR 32.4 17.5 41% 33 76.4 0.0
29 10:15 Calm 16.09 Fair CLR 31.5 18.4 46% 33 76.4 0.0
29 09:55 Calm 16.09 Fair CLR 30.1 18.3 49% 31 76.4 0.0
29 09:35 Calm 16.09 Fair CLR 28.9 18.5 53% 30 76.4 0.0
29 09:15 Calm 16.09 Fair CLR 28.1 18.8 57% 29 76.4 0.0
29 08:55 Calm 16.09 Fair CLR 27 19.1 62% 28 76.4 0.0
29 08:35 Calm 16.09 Fair CLR 26 19.5 67% 27 76.4 0.0
29 08:15 Calm 16.09 Fair CLR 24.6 19.2 72% 25 76.4 0.0
29 07:55 Calm 16.09 Fair CLR 23.7 19.2 76% 76.4 0.0
29 07:35 Calm 16.09 Fair CLR 22.3 19.1 82% 76.4 0.0
29 07:15 Calm 16.09 Fair CLR 22 18.9 83% 76.38 0.0
29 06:55 Calm 16.09 Fair CLR 22.5 19 24.5 22 81% 76.38 0.0
29 06:35 Calm 16.09 Fair CLR 22.5 18.8 80% 76.35 0.0
29 06:15 Calm 16.09 Fair CLR 22.5 18.7 79% 76.35 0.0
29 05:55 Calm 16.09 Fair CLR 22.7 18.5 77% 76.35 0.0
29 05:35 Calm 16.09 Fair CLR 22.5 18.1 76% 76.38 0.0
29 05:15 Calm 16.09 Fair CLR 22.7 18.1 75% 76.35 0.0
29 04:55 Calm 16.09 Fair CLR 22 17.7 77% 76.35 0.0
29 04:35 Calm 16.09 Fair CLR 22.6 17.6 73% 76.35 0.0
29 04:15 Calm 16.09 Fair CLR 23.5 17.6 70% 76.33 0.0
29 03:55 Calm 16.09 Fair CLR 23.5 17.7 70% 76.33 0.0
29 03:35 Calm 16.09 Fair CLR 24.3 17.8 67% 25 76.33 0.0
29 03:15 E 6 16.09 Fair CLR 24.2 17.7 67% 25 76.3 0.0
29 02:55 Calm 16.09 Fair CLR 24.2 17.1 65% 25 76.33 0.0
29 02:35 Calm 16.09 Fair CLR 24.5 16.7 62% 26 76.33 0.0
29 02:15 Calm 16.09 Fair CLR 23.7 16.5 64% 76.33 0.0
29 01:55 Calm 16.09 Fair CLR 22.8 16.1 66% 76.33 0.0
29 01:35 Calm 16.09 Fair CLR 23.3 16.4 65% 76.33 0.0
29 01:15 Calm 16.09 Fair CLR 23.5 16 63% 76.3 0.0
29 00:55 Calm 16.09 Fair CLR 24.7 15.8 34.3 24.4 58% 26 76.3 0.0
29 00:35 Calm 16.09 Fair CLR 24.5 15.7 58% 26 76.3 0.0
29 00:15 Calm 16.09 Fair CLR 24.6 15.6 57% 26 76.28 0.0
28 23:55 Calm 16.09 Fair CLR 25.3 15.5 55% 26 76.28 0.0
28 23:35 Calm 16.09 Fair CLR 26.7 15.1 49% 27 76.28 0.0
28 23:15 Calm 16.09 Fair CLR 25.4 16 56% 26 76.28 0.0
28 22:55 Calm 16.09 Fair CLR 26.8 15.3 49% 27 76.28 0.0
28 22:35 Calm 16.09 Fair CLR 27.6 15.2 47% 28 76.25 0.0
28 22:15 Calm 16.09 Fair CLR 28.2 15.3 45% 28 76.25 0.0
28 21:55 Calm 16.09 Fair CLR 28 15.9 48% 28 76.23 0.0
28 21:35 Calm 16.09 Fair CLR 28 16.4 49% 28 76.23 0.0
28 21:15 Calm 16.09 Fair CLR 28.3 16.5 49% 29 76.2 0.0
28 20:55 Calm 16.09 Fair CLR 29.9 15.4 41% 30 76.17 0.0
28 20:35 Calm 16.09 Fair CLR 31 14.8 37% 31 76.17 0.0
28 20:15 Calm 16.09 Fair CLR 32 14.5 35% 31 76.15 0.0
28 19:55 Calm 16.09 Fair CLR 32.8 14.4 33% 32 76.15 0.0
Date Time (cdt) Wind (kph) Vis. (km) Weather Sky Cond. Air Dwpt Max. Min. Relative Humidity Wind Chill (°C) Heat Index (°C) altimeter (cm) sea level (mb) 1 hr 3 hr 6 hr
6 hour
Temperature (ºC) Pressure Precipitation (cm)